Time;durP1;ratioP1;P1;durP2;ratioP2;P2;SDS_P1;SDS_P2;PMS_P1;PMS_P2;Temp;Humidity;BMP_temperature;BMP_pressure;BME280_temperature;BME280_humidity;BME280_pressure;Samples;Min_cycle;Max_cycle;Signal;HPM_P1;HPM_P2
2023/05/14 04:22:32;;;;;;;7.78;5.50;;;;;;;10.52;100.00;100225.63;5089460;28;20328;-65
2023/05/14 04:24:58;;;;;;;11.65;5.47;;;;;;;10.53;100.00;100229.13;5089611;28;20036;-66
2023/05/14 04:27:23;;;;;;;11.68;5.93;;;;;;;10.51;100.00;100237.28;5089031;28;20670;-66
2023/05/14 04:29:49;;;;;;;10.85;5.78;;;;;;;10.49;100.00;100230.44;5089336;28;20060;-66
2023/05/14 04:32:16;;;;;;;12.77;5.32;;;;;;;10.52;100.00;100238.94;5089366;28;20120;-65
2023/05/14 04:34:41;;;;;;;8.57;5.15;;;;;;;10.58;100.00;100235.59;5089318;28;20037;-66
2023/05/14 04:37:07;;;;;;;16.20;8.52;;;;;;;10.63;100.00;100240.41;5088832;28;20040;-65
2023/05/14 04:39:33;;;;;;;9.75;5.72;;;;;;;10.71;100.00;100239.53;5089247;28;20040;-66
2023/05/14 04:41:58;;;;;;;11.88;7.05;;;;;;;10.69;100.00;100238.84;5089127;28;20478;-66
2023/05/14 04:44:25;;;;;;;8.10;4.95;;;;;;;10.73;100.00;100238.34;5089123;28;20090;-66
2023/05/14 04:46:50;;;;;;;18.80;8.48;;;;;;;10.76;100.00;100238.00;5089155;28;20043;-66
2023/05/14 04:49:16;;;;;;;9.70;5.63;;;;;;;10.79;100.00;100234.97;5088913;28;20032;-66
2023/05/14 04:51:41;;;;;;;7.43;4.50;;;;;;;10.85;100.00;100239.59;5088996;28;20040;-66
2023/05/14 04:54:06;;;;;;;9.77;4.95;;;;;;;10.83;100.00;100238.13;5088917;28;20048;-66
2023/05/14 04:56:32;;;;;;;8.18;5.82;;;;;;;10.82;100.00;100242.63;5088908;28;20036;-66
2023/05/14 04:58:57;;;;;;;8.45;4.95;;;;;;;10.80;100.00;100238.47;5088480;28;20614;-65
2023/05/14 05:01:22;;;;;;;7.75;4.43;;;;;;;10.79;100.00;100242.13;5088766;28;20040;-66
2023/05/14 05:03:48;;;;;;;8.50;4.65;;;;;;;10.82;100.00;100239.97;5088810;28;20389;-65
2023/05/14 05:06:13;;;;;;;6.10;4.55;;;;;;;10.88;100.00;100236.56;5088675;28;20150;-65
2023/05/14 05:08:39;;;;;;;7.47;4.38;;;;;;;10.95;100.00;100242.03;5088440;28;20051;-66
2023/05/14 05:11:05;;;;;;;10.00;5.05;;;;;;;10.98;100.00;100244.38;5088587;28;20392;-66
2023/05/14 05:13:31;;;;;;;8.25;4.97;;;;;;;11.02;100.00;100242.16;5088644;28;20047;-66
2023/05/14 05:15:56;;;;;;;6.90;4.90;;;;;;;11.09;100.00;100241.31;5088384;28;20047;-66
2023/05/14 05:18:22;;;;;;;7.40;4.10;;;;;;;11.12;100.00;100246.28;5088240;28;20036;-66
2023/05/14 05:20:47;;;;;;;5.93;4.50;;;;;;;11.17;100.00;100242.25;5088377;28;20432;-66
2023/05/14 05:23:13;;;;;;;8.52;4.47;;;;;;;11.21;100.00;100238.22;5088314;28;20066;-66
2023/05/14 05:25:38;;;;;;;7.25;4.47;;;;;;;11.22;100.00;100239.91;5087161;28;20526;-66
2023/05/14 05:28:03;;;;;;;7.82;4.28;;;;;;;11.29;100.00;100244.34;5086582;28;20044;-66
2023/05/14 05:30:29;;;;;;;7.30;4.93;;;;;;;11.21;100.00;100233.69;5088277;28;20106;-66
2023/05/14 05:32:56;;;;;;;7.18;4.38;;;;;;;11.30;100.00;100240.66;5080440;28;20028;-66
2023/05/14 05:35:21;;;;;;;9.23;4.70;;;;;;;11.33;100.00;100242.13;5074602;28;20513;-66
2023/05/14 05:37:47;;;;;;;8.75;4.63;;;;;;;11.41;100.00;100239.41;5064851;28;20025;-66
2023/05/14 05:40:13;;;;;;;7.25;4.43;;;;;;;11.46;100.00;100239.69;5054490;28;20379;-66
2023/05/14 05:42:39;;;;;;;7.50;4.35;;;;;;;11.48;100.00;100231.53;5054793;28;20398;-66
2023/05/14 05:45:06;;;;;;;6.85;4.32;;;;;;;11.49;100.00;100242.00;5054299;28;20048;-65
2023/05/14 05:47:31;;;;;;;6.28;4.50;;;;;;;11.59;100.00;100231.91;5054206;28;20494;-66
2023/05/14 05:49:56;;;;;;;5.75;4.70;;;;;;;11.59;100.00;100234.56;5053179;28;20075;-65
2023/05/14 05:52:22;;;;;;;7.22;4.38;;;;;;;11.54;100.00;100242.31;5054360;28;20112;-66
2023/05/14 05:54:47;;;;;;;7.20;4.30;;;;;;;11.60;100.00;100238.91;5054366;28;20062;-66
2023/05/14 05:57:13;;;;;;;8.02;4.82;;;;;;;11.74;100.00;100244.47;5053905;28;20048;-65
2023/05/14 05:59:38;;;;;;;7.90;4.95;;;;;;;11.81;100.00;100242.78;5061705;28;20043;-66
2023/05/14 06:02:03;;;;;;;5.90;4.10;;;;;;;11.73;100.00;100229.44;5068693;28;20442;-66
2023/05/14 06:04:29;;;;;;;9.38;4.18;;;;;;;11.88;100.00;100233.84;5074107;28;20517;-66
2023/05/14 06:06:54;;;;;;;9.68;4.38;;;;;;;11.86;100.00;100233.19;5073957;28;20555;-66
2023/05/14 06:09:20;;;;;;;7.93;4.35;;;;;;;11.89;100.00;100232.00;5074004;28;20163;-66
2023/05/14 06:11:45;;;;;;;8.18;4.45;;;;;;;11.91;100.00;100228.13;5065115;28;20029;-66
2023/05/14 06:14:11;;;;;;;6.95;4.22;;;;;;;11.92;100.00;100232.47;5065230;28;20032;-66
2023/05/14 06:16:36;;;;;;;7.85;4.47;;;;;;;12.04;100.00;100234.69;5067813;28;20079;-66
2023/05/14 06:19:01;;;;;;;5.82;4.03;;;;;;;12.09;100.00;100233.13;5063313;28;20040;-66
2023/05/14 06:21:27;;;;;;;7.28;4.15;;;;;;;12.13;100.00;100228.28;5058929;28;20119;-66
2023/05/14 06:23:52;;;;;;;6.35;3.78;;;;;;;12.25;100.00;100239.31;5053803;28;20045;-66
2023/05/14 06:26:18;;;;;;;6.55;4.07;;;;;;;12.31;100.00;100227.88;5053671;28;20048;-66
2023/05/14 06:28:43;;;;;;;7.05;4.40;;;;;;;12.36;100.00;100233.50;5053306;28;20079;-66
2023/05/14 06:31:09;;;;;;;5.38;3.45;;;;;;;12.31;99.18;100228.72;5053799;28;20095;-68
2023/05/14 06:33:34;;;;;;;5.30;3.95;;;;;;;12.49;98.37;100231.00;5053581;28;20037;-65
2023/05/14 06:36:03;;;;;;;7.85;4.10;;;;;;;12.61;98.28;100232.19;5053578;28;20045;-69
2023/05/14 06:38:29;;;;;;;5.53;3.67;;;;;;;12.72;96.96;100229.03;5053186;28;20120;-68
2023/05/14 06:40:54;;;;;;;5.38;3.70;;;;;;;12.77;96.06;100231.97;5053361;28;20560;-66
2023/05/14 06:43:20;;;;;;;7.20;3.92;;;;;;;12.70;95.77;100225.72;5052031;28;20051;-66
2023/05/14 06:45:49;;;;;;;5.55;3.58;;;;;;;12.83;95.99;100232.22;5052522;28;20501;-66
2023/05/14 06:48:17;;;;;;;6.15;4.40;;;;;;;12.90;96.00;100239.31;5052876;28;20102;-67
2023/05/14 06:50:46;;;;;;;6.72;3.95;;;;;;;12.85;96.40;100232.91;5053343;28;20039;-65
2023/05/14 06:53:12;;;;;;;6.53;4.25;;;;;;;12.86;96.70;100231.88;5053238;28;20037;-65
2023/05/14 06:55:37;;;;;;;5.97;4.15;;;;;;;12.84;94.66;100220.53;5053029;28;20082;-65
2023/05/14 06:58:05;;;;;;;7.05;3.83;;;;;;;12.94;94.41;100235.25;5052753;28;20036;-65
2023/05/14 07:00:30;;;;;;;;;;;;;;;12.99;94.83;100226.66;5053452;28;20037;-67
2023/05/14 07:02:56;;;;;;;8.30;5.70;;;;;;;13.01;97.16;100225.47;5052993;28;19940;-67
2023/05/14 07:05:21;;;;;;;6.90;4.70;;;;;;;13.08;96.80;100216.69;5052871;28;20493;-66
2023/05/14 07:07:46;;;;;;;7.75;4.47;;;;;;;13.23;94.95;100226.31;5052637;28;20125;-66
2023/05/14 07:10:12;;;;;;;8.63;4.68;;;;;;;13.29;95.07;100230.06;5052906;28;20502;-67
2023/05/14 07:12:37;;;;;;;7.30;4.78;;;;;;;13.36;94.77;100224.78;5052820;28;20041;-67
2023/05/14 07:15:03;;;;;;;4.90;3.67;;;;;;;13.46;93.99;100231.47;5052917;28;20044;-67
2023/05/14 07:17:28;;;;;;;6.25;3.80;;;;;;;13.47;92.45;100226.97;5052330;28;20040;-67
2023/05/14 07:19:57;;;;;;;5.00;3.28;;;;;;;13.49;92.15;100222.22;5051564;28;20040;-67
2023/05/14 07:22:22;;;;;;;5.55;3.60;;;;;;;13.63;92.04;100218.66;5052460;28;20128;-67
2023/05/14 07:24:48;;;;;;;7.63;4.40;;;;;;;13.68;91.72;100218.91;5052647;28;20464;-66
2023/05/14 07:27:13;;;;;;;5.45;3.47;;;;;;;13.71;91.52;100213.16;5052205;28;20037;-64
2023/05/14 07:29:39;;;;;;;5.70;3.80;;;;;;;13.66;90.92;100218.28;5052536;28;20092;-67
2023/05/14 07:32:04;;;;;;;5.78;4.13;;;;;;;13.65;91.29;100213.94;5052411;28;20116;-67
2023/05/14 07:34:30;;;;;;;7.03;4.55;;;;;;;13.66;91.56;100199.53;5052369;28;20120;-66
2023/05/14 07:36:55;;;;;;;5.35;3.22;;;;;;;13.76;90.47;100204.56;5052098;28;20041;-66
2023/05/14 07:39:21;;;;;;;6.70;4.38;;;;;;;13.77;90.44;100207.03;5052168;28;20494;-67
2023/05/14 07:41:46;;;;;;;5.72;3.65;;;;;;;13.89;90.89;100209.16;5052247;28;20040;-66
2023/05/14 07:44:12;;;;;;;7.70;3.78;;;;;;;14.03;89.70;100201.03;5052261;28;20037;-65
2023/05/14 07:46:37;;;;;;;5.35;3.80;;;;;;;14.09;88.65;100196.75;5052216;28;20041;-67
2023/05/14 07:49:03;;;;;;;5.82;4.18;;;;;;;14.18;88.77;100195.56;5051837;28;20119;-66
2023/05/14 07:51:28;;;;;;;5.57;3.80;;;;;;;14.23;88.07;100189.59;5052006;28;20052;-65
2023/05/14 07:53:57;;;;;;;7.65;4.95;;;;;;;14.43;88.89;100195.06;5050944;28;20036;-66
2023/05/14 07:56:22;;;;;;;5.20;3.58;;;;;;;14.40;87.68;100193.59;5051683;28;20033;-66
2023/05/14 07:58:48;;;;;;;6.40;3.63;;;;;;;14.48;86.28;100187.28;5050384;28;20037;-66
2023/05/14 08:01:13;;;;;;;6.63;4.03;;;;;;;14.58;86.26;100187.72;5051975;28;20064;-66
2023/05/14 08:03:38;;;;;;;8.18;3.75;;;;;;;14.59;86.08;100184.00;5051964;28;20047;-66
2023/05/14 08:06:04;;;;;;;4.72;3.50;;;;;;;14.73;86.20;100185.69;5051911;28;20074;-66
2023/05/14 08:08:30;;;;;;;5.22;3.40;;;;;;;14.85;86.83;100189.44;5051585;28;20048;-66
2023/05/14 08:10:55;;;;;;;5.85;3.55;;;;;;;14.87;83.97;100184.72;5051795;28;20127;-66
2023/05/14 08:13:21;;;;;;;5.55;3.72;;;;;;;15.11;82.61;100185.19;5051844;28;20044;-66
2023/05/14 08:15:46;;;;;;;6.63;3.80;;;;;;;15.18;82.26;100181.47;5051589;28;20051;-66
2023/05/14 08:18:11;;;;;;;5.82;3.63;;;;;;;15.34;80.85;100182.13;5051358;28;20118;-66
2023/05/14 08:20:37;;;;;;;6.03;4.13;;;;;;;15.36;79.11;100180.03;5051578;28;20090;-66
2023/05/14 08:23:02;;;;;;;4.57;3.10;;;;;;;15.46;80.69;100169.75;5051752;28;20555;-66
2023/05/14 08:25:28;;;;;;;5.35;4.15;;;;;;;15.58;80.88;100172.59;5051412;28;20106;-66
2023/05/14 08:27:53;;;;;;;4.88;3.30;;;;;;;15.57;80.63;100170.94;5051363;28;20098;-66
2023/05/14 08:30:20;;;;;;;5.78;3.38;;;;;;;15.52;78.58;100163.53;5051490;28;20033;-65
2023/05/14 08:32:45;;;;;;;4.15;2.95;;;;;;;15.69;78.99;100164.78;5051559;28;20060;-65
2023/05/14 08:35:11;;;;;;;4.78;3.22;;;;;;;15.84;78.50;100156.47;5051511;28;20095;-65
2023/05/14 08:37:36;;;;;;;4.72;3.15;;;;;;;16.00;76.75;100166.78;5051282;28;20037;-66
2023/05/14 08:40:02;;;;;;;4.47;3.20;;;;;;;16.13;79.47;100154.38;5051516;28;20482;-66
2023/05/14 08:42:28;;;;;;;4.40;3.33;;;;;;;16.34;76.16;100161.31;5051587;28;20040;-66
2023/05/14 08:45:03;;;;;;;3.95;3.20;;;;;;;16.37;74.12;100164.41;5051568;28;20044;-65
2023/05/14 08:47:29;;;;;;;5.85;3.08;;;;;;;16.62;71.58;100167.16;5051200;28;20442;-66
2023/05/14 08:50:03;;;;;;;3.85;3.10;;;;;;;16.77;72.14;100159.69;5051583;28;20448;-66
2023/05/14 08:52:29;;;;;;;3.33;2.60;;;;;;;16.77;71.65;100162.38;5051516;28;20037;-66
2023/05/14 08:54:55;;;;;;;4.43;3.00;;;;;;;16.65;73.12;100164.06;5051412;28;20045;-66
2023/05/14 08:57:23;;;;;;;3.78;3.10;;;;;;;16.65;70.59;100163.25;5050873;28;20470;-66
2023/05/14 08:59:49;;;;;;;;;;;;;;;16.83;71.52;100155.31;5051721;28;20045;-66
2023/05/14 09:02:16;;;;;;;5.10;2.90;;;;;;;16.89;69.35;100142.84;5051327;28;19913;-65
2023/05/14 09:04:41;;;;;;;4.63;3.23;;;;;;;17.10;69.25;100145.22;5051385;28;20045;-66
2023/05/14 09:07:07;;;;;;;3.53;2.70;;;;;;;17.31;68.30;100142.13;5051049;28;20460;-66
2023/05/14 09:09:33;;;;;;;3.75;2.83;;;;;;;17.26;67.30;100141.13;5055145;28;20041;-66
2023/05/14 09:12:00;;;;;;;4.07;2.65;;;;;;;17.59;65.34;100140.84;5055036;28;20494;-66
2023/05/14 09:14:25;;;;;;;3.15;2.60;;;;;;;17.35;65.00;100143.34;5055017;28;20025;-66
2023/05/14 09:16:51;;;;;;;3.97;2.67;;;;;;;17.71;64.59;100139.13;5053366;28;20048;-66
2023/05/14 09:19:20;;;;;;;3.67;2.80;;;;;;;17.82;63.66;100132.19;5054826;28;20044;-64
2023/05/14 09:21:47;;;;;;;3.45;2.85;;;;;;;17.92;63.88;100131.63;5054792;28;20037;-66
2023/05/14 09:24:23;;;;;;;2.83;2.20;;;;;;;17.84;62.98;100128.19;5054931;28;20033;-66
2023/05/14 09:26:52;;;;;;;3.10;2.50;;;;;;;17.96;61.27;100130.16;5054826;28;20033;-64
2023/05/14 09:29:18;;;;;;;3.65;2.40;;;;;;;17.63;61.90;100128.59;5054587;28;20029;-67
2023/05/14 09:31:44;;;;;;;3.53;2.50;;;;;;;17.66;63.23;100130.00;5054689;28;20091;-65
2023/05/14 09:34:10;;;;;;;3.75;2.55;;;;;;;17.35;61.92;100126.38;5054692;28;20037;-66
2023/05/14 09:36:35;;;;;;;4.15;2.40;;;;;;;17.40;66.89;100123.81;5054531;28;20037;-65
2023/05/14 09:39:04;;;;;;;3.05;1.98;;;;;;;17.47;63.89;100124.59;5054281;28;20448;-65
2023/05/14 09:41:29;;;;;;;3.10;2.40;;;;;;;17.54;62.91;100124.53;5054692;28;20056;-66
2023/05/14 09:43:56;;;;;;;2.50;2.05;;;;;;;17.49;62.47;100127.91;5054543;28;20063;-66
2023/05/14 09:46:22;;;;;;;3.67;2.30;;;;;;;17.54;63.00;100125.38;5054448;28;20041;-64
2023/05/14 09:48:48;;;;;;;3.03;2.33;;;;;;;17.31;62.15;100117.91;5054064;28;20120;-66
2023/05/14 09:51:16;;;;;;;3.30;2.25;;;;;;;17.38;62.78;100125.09;5054276;28;20370;-66
2023/05/14 09:53:43;;;;;;;3.83;2.50;;;;;;;17.51;63.88;100119.59;5054429;28;20037;-65
2023/05/14 09:56:08;;;;;;;3.72;2.25;;;;;;;17.53;62.65;100122.88;5054403;28;20029;-65
2023/05/14 09:58:34;;;;;;;2.58;2.00;;;;;;;17.33;61.85;100113.13;5053913;28;20563;-66
2023/05/14 10:01:01;;;;;;;2.60;1.80;;;;;;;17.35;60.75;100121.81;5054280;28;20037;-64
2023/05/14 10:03:28;;;;;;;2.50;1.92;;;;;;;17.36;60.50;100112.69;5054076;28;20037;-66
2023/05/14 10:05:57;;;;;;;2.50;2.03;;;;;;;17.45;61.91;100117.78;5054078;28;20043;-65
2023/05/14 10:08:43;;;;;;;3.03;1.92;;;;;;;17.52;61.01;100116.69;5053623;28;20124;-66
2023/05/14 10:11:23;;;;;;;2.65;1.73;;;;;;;17.64;61.54;100104.13;5053736;28;20041;-65
2023/05/14 10:14:01;;;;;;;2.72;2.10;;;;;;;17.78;62.70;100110.22;5053956;28;20394;-66
2023/05/14 10:16:36;;;;;;;1.70;1.60;;;;;;;17.84;60.63;100103.94;5053898;28;20036;-65
2023/05/14 10:19:08;;;;;;;2.50;1.85;;;;;;;17.99;59.14;100106.25;5053497;28;20094;-64
2023/05/14 10:21:39;;;;;;;2.03;1.75;;;;;;;18.17;59.27;100110.81;5053726;28;20036;-66
2023/05/14 10:24:06;;;;;;;1.95;1.70;;;;;;;18.35;57.57;100102.72;5053737;28;20120;-64
2023/05/14 10:26:37;;;;;;;2.60;2.10;;;;;;;18.51;58.34;100112.03;5053700;28;20076;-66
2023/05/14 10:29:04;;;;;;;2.85;2.20;;;;;;;18.67;58.71;100099.84;5053309;28;20563;-65
2023/05/14 10:31:54;;;;;;;2.70;2.20;;;;;;;18.78;59.08;100099.06;5053539;28;20033;-65
2023/05/14 10:34:44;;;;;;;3.17;2.22;;;;;;;18.88;60.80;100098.47;5053491;28;20474;-66
2023/05/14 10:37:12;;;;;;;2.28;1.95;;;;;;;18.90;63.71;100093.66;5053215;28;20476;-65
2023/05/14 10:40:04;;;;;;;2.25;2.00;;;;;;;19.02;59.34;100105.31;5053452;28;20126;-65
2023/05/14 10:42:38;;;;;;;2.58;2.08;;;;;;;18.54;57.76;100103.50;5046504;28;20079;-65
2023/05/14 10:45:08;;;;;;;3.63;2.63;;;;;;;18.41;58.49;100106.38;5053303;28;20083;-64
2023/05/14 10:47:44;;;;;;;2.17;1.90;;;;;;;19.06;59.38;100084.91;5053056;28;20502;-66
2023/05/14 10:50:13;;;;;;;2.60;2.17;;;;;;;19.56;56.84;100079.06;5053332;28;20029;-66
2023/05/14 10:52:42;;;;;;;3.90;2.42;;;;;;;20.09;55.50;100079.94;5053069;28;20310;-65
2023/05/14 10:55:13;;;;;;;3.55;2.38;;;;;;;20.35;54.48;100078.56;5053082;28;20040;-66
2023/05/14 10:57:41;;;;;;;2.20;1.85;;;;;;;20.41;54.08;100078.41;5052732;28;20053;-65
2023/05/14 11:00:07;;;;;;;2.30;1.95;;;;;;;20.25;52.58;100079.16;5053064;28;20125;-64
2023/05/14 11:02:41;;;;;;;1.98;1.80;;;;;;;20.42;51.64;100076.53;5053002;28;20025;-65
2023/05/14 11:05:09;;;;;;;2.40;1.70;;;;;;;20.15;53.06;100071.69;5052953;28;20087;-67
2023/05/14 11:07:43;;;;;;;2.17;1.80;;;;;;;19.71;53.81;100067.78;5067898;28;20501;-65
2023/05/14 11:10:10;;;;;;;2.45;2.20;;;;;;;19.51;54.75;100068.97;5072885;28;20071;-66
2023/05/14 11:12:37;;;;;;;2.60;1.88;;;;;;;19.02;55.15;100072.91;5072602;28;20028;-65
2023/05/14 11:15:09;;;;;;;1.98;1.77;;;;;;;19.25;54.79;100072.94;5072902;28;20036;-67
2023/05/14 11:17:36;;;;;;;3.08;2.20;;;;;;;19.00;57.27;100066.94;5072475;28;20122;-66
2023/05/14 11:20:03;;;;;;;2.53;2.00;;;;;;;18.91;58.35;100069.16;5072831;28;20037;-65
2023/05/14 11:22:29;;;;;;;2.05;1.75;;;;;;;18.38;57.67;100061.81;5073114;28;20112;-66
2023/05/14 11:24:54;;;;;;;2.55;2.08;;;;;;;18.38;59.70;100071.78;5071384;28;20138;-66
2023/05/14 11:27:21;;;;;;;3.10;2.10;;;;;;;18.42;58.56;100070.28;5072059;28;20052;-67
2023/05/14 11:29:47;;;;;;;3.15;2.33;;;;;;;18.50;59.51;100064.56;5072092;28;20119;-67
2023/05/14 11:32:14;;;;;;;2.55;2.08;;;;;;;18.64;58.52;100066.00;5071890;28;20111;-66
2023/05/14 11:34:43;;;;;;;2.58;2.15;;;;;;;18.64;58.49;100063.31;5072212;28;20032;-65
2023/05/14 11:37:09;;;;;;;3.85;2.70;;;;;;;19.08;58.94;100060.38;5071853;28;20052;-65
2023/05/14 11:39:36;;;;;;;4.10;2.85;;;;;;;18.97;57.75;100064.69;5072088;28;20036;-65
2023/05/14 11:42:13;;;;;;;3.13;2.45;;;;;;;19.01;56.66;100062.38;5072222;28;20085;-66
2023/05/14 11:44:43;;;;;;;4.60;2.28;;;;;;;19.10;59.72;100055.56;5072316;28;20119;-67
2023/05/14 11:47:09;;;;;;;3.53;2.63;;;;;;;19.21;59.75;100062.84;5070205;28;20119;-66
2023/05/14 11:49:36;;;;;;;3.45;2.50;;;;;;;19.23;57.75;100058.03;5061032;28;20049;-66
2023/05/14 11:52:04;;;;;;;2.88;2.30;;;;;;;19.13;57.73;100052.41;5060726;28;20028;-66
2023/05/14 11:54:31;;;;;;;2.92;2.00;;;;;;;18.93;57.76;100050.84;5062128;28;20231;-65
2023/05/14 11:56:58;;;;;;;3.87;2.80;;;;;;;18.87;58.33;100053.66;5062046;28;20168;-65
2023/05/14 11:59:26;;;;;;;3.22;2.38;;;;;;;18.68;57.75;100052.91;5060479;28;20336;-66
2023/05/14 12:01:51;;;;;;;;;;;;;;;18.55;58.53;100050.38;5062928;28;20055;-65
2023/05/14 12:04:21;;;;;;;2.78;2.00;;;;;;;18.72;58.45;100039.81;5061332;28;19916;-65
2023/05/14 12:06:48;;;;;;;2.22;1.90;;;;;;;18.77;58.25;100040.72;5060648;28;20505;-64
2023/05/14 12:09:15;;;;;;;2.72;2.35;;;;;;;18.83;59.51;100042.50;5060087;28;20027;-65
2023/05/14 12:11:40;;;;;;;2.63;2.05;;;;;;;18.87;59.04;100032.91;5062459;28;20055;-63
2023/05/14 12:14:24;;;;;;;2.20;2.00;;;;;;;18.70;58.28;100038.13;5060657;28;20044;-65
2023/05/14 12:16:50;;;;;;;2.63;2.10;;;;;;;18.54;58.42;100046.06;5060984;28;20394;-65
2023/05/14 12:19:18;;;;;;;2.92;2.25;;;;;;;18.50;58.40;100034.88;5060912;28;20039;-66
2023/05/14 12:21:46;;;;;;;2.75;2.10;;;;;;;18.70;58.47;100031.91;5047362;28;20032;-65
2023/05/14 12:24:18;;;;;;;2.72;2.20;;;;;;;18.88;57.64;100028.31;5060195;28;20114;-65
2023/05/14 12:26:48;;;;;;;2.85;2.35;;;;;;;18.71;58.32;100025.47;5042586;28;20033;-64
2023/05/14 12:29:15;;;;;;;4.22;2.00;;;;;;;18.55;56.95;100040.41;5061505;28;20052;-65
2023/05/14 12:31:48;;;;;;;3.20;2.10;;;;;;;18.68;57.75;100021.38;5062399;28;20048;-65
2023/05/14 12:34:14;;;;;;;2.45;2.25;;;;;;;18.72;57.27;100021.75;5061627;28;20559;-65
2023/05/14 12:36:40;;;;;;;2.17;1.90;;;;;;;18.90;56.41;100020.81;5060171;28;20029;-65
2023/05/14 12:39:06;;;;;;;2.10;1.80;;;;;;;19.12;56.65;100024.59;5042595;28;20033;-64
2023/05/14 12:41:32;;;;;;;2.28;1.80;;;;;;;18.88;56.13;100015.66;5061520;28;20036;-64
2023/05/14 12:43:59;;;;;;;2.90;1.98;;;;;;;19.13;54.90;100018.13;5065411;28;20037;-65
2023/05/14 12:46:26;;;;;;;3.78;2.85;;;;;;;19.17;54.98;100016.63;5064214;28;20037;-65
2023/05/14 12:48:54;;;;;;;3.70;2.50;;;;;;;19.17;53.40;100004.97;5065270;28;20036;-64
2023/05/14 12:51:20;;;;;;;2.08;1.83;;;;;;;20.41;55.32;100002.69;5060681;28;20124;-65
2023/05/14 12:53:45;;;;;;;2.78;2.20;;;;;;;21.12;49.81;100003.03;5055286;28;20083;-65
2023/05/14 12:56:11;;;;;;;2.90;2.25;;;;;;;21.36;49.21;99995.56;5053876;28;20082;-65
2023/05/14 12:58:37;;;;;;;2.35;1.90;;;;;;;22.06;47.16;99996.69;5055074;28;20036;-65
2023/05/14 13:01:03;;;;;;;2.47;1.90;;;;;;;23.12;46.00;99988.69;5055278;28;20059;-64
2023/05/14 13:03:29;;;;;;;2.20;1.80;;;;;;;23.16;45.46;99991.72;5055251;28;20044;-65
2023/05/14 13:05:55;;;;;;;3.67;2.33;;;;;;;22.69;45.63;99981.56;5055267;28;20045;-65
2023/05/14 13:08:23;;;;;;;2.30;1.88;;;;;;;21.77;47.04;99988.75;5054800;28;20040;-64
2023/05/14 13:10:50;;;;;;;2.58;1.80;;;;;;;21.53;47.89;99984.69;5054879;28;20051;-62
2023/05/14 13:13:15;;;;;;;2.67;1.90;;;;;;;20.90;48.75;99975.09;5055043;28;20045;-62
2023/05/14 13:15:41;;;;;;;3.33;1.90;;;;;;;20.79;49.13;99982.22;5054788;28;20466;-61
2023/05/14 13:18:07;;;;;;;2.20;1.90;;;;;;;20.40;49.84;99986.66;5054631;28;20025;-62
2023/05/14 13:20:33;;;;;;;1.60;1.50;;;;;;;20.67;49.19;99976.06;5054851;28;20037;-63
2023/05/14 13:22:58;;;;;;;2.33;1.80;;;;;;;19.93;50.42;99976.91;5054777;28;20371;-62
2023/05/14 13:25:24;;;;;;;3.50;2.10;;;;;;;19.82;51.05;99968.81;5054538;28;20091;-62
2023/05/14 13:27:49;;;;;;;1.60;1.50;;;;;;;20.12;51.39;99974.00;5054479;28;20036;-63
2023/05/14 13:30:18;;;;;;;2.30;1.80;;;;;;;20.02;51.79;99975.47;5054803;28;20041;-63
2023/05/14 13:32:44;;;;;;;2.03;1.60;;;;;;;20.05;51.28;99972.25;5054510;28;20049;-62
2023/05/14 13:35:10;;;;;;;2.05;1.70;;;;;;;20.12;52.34;99969.41;5054615;28;20083;-63
2023/05/14 13:37:35;;;;;;;2.45;1.50;;;;;;;20.01;50.54;99967.56;5054238;28;20037;-61
2023/05/14 13:40:03;;;;;;;1.92;1.42;;;;;;;20.12;50.62;99957.78;5054496;28;20040;-62
2023/05/14 13:42:29;;;;;;;1.77;1.63;;;;;;;19.98;50.84;99952.66;5054588;28;20090;-63
2023/05/14 13:44:55;;;;;;;1.95;1.75;;;;;;;20.18;50.87;99952.22;5054630;28;20108;-64
2023/05/14 13:47:20;;;;;;;2.13;1.58;;;;;;;19.91;51.27;99945.78;5053923;28;20519;-61
2023/05/14 13:49:46;;;;;;;2.00;1.80;;;;;;;19.96;51.52;99944.00;5054416;28;20033;-62
2023/05/14 13:52:11;;;;;;;2.25;1.83;;;;;;;19.90;51.44;99938.72;5054183;28;20037;-62
2023/05/14 13:54:36;;;;;;;1.92;1.50;;;;;;;19.93;49.87;99930.94;5053609;28;20422;-60
2023/05/14 13:57:02;;;;;;;2.30;1.90;;;;;;;20.01;49.58;99935.13;5053927;28;20046;-61
2023/05/14 13:59:27;;;;;;;2.67;1.73;;;;;;;20.03;50.42;99927.63;5054214;28;20052;-62
2023/05/14 14:01:53;;;;;;;1.92;1.73;;;;;;;19.98;50.47;99924.81;5054199;28;20068;-63
2023/05/14 14:04:18;;;;;;;2.22;1.60;;;;;;;20.11;50.20;99918.28;5054076;28;20475;-63
2023/05/14 14:06:44;;;;;;;2.05;1.60;;;;;;;20.16;51.09;99910.28;5054005;28;20557;-62
2023/05/14 14:09:09;;;;;;;1.83;1.60;;;;;;;19.95;50.72;99909.91;5053712;28;20379;-62
2023/05/14 14:11:35;;;;;;;1.55;1.35;;;;;;;19.99;49.64;99912.94;5053877;28;20543;-60
2023/05/14 14:14:00;;;;;;;2.63;1.90;;;;;;;19.94;49.77;99907.44;5052568;28;20095;-61
2023/05/14 14:16:25;;;;;;;1.88;1.58;;;;;;;20.14;52.11;99905.09;5053759;28;20041;-63
2023/05/14 14:18:51;;;;;;;1.83;1.60;;;;;;;20.18;50.37;99903.56;5053539;28;20096;-62
2023/05/14 14:21:17;;;;;;;2.60;1.85;;;;;;;20.36;49.85;99899.81;5053751;28;20490;-64
2023/05/14 14:23:46;;;;;;;2.03;1.75;;;;;;;20.17;49.30;99891.09;5053542;28;20045;-60
2023/05/14 14:26:11;;;;;;;1.85;1.50;;;;;;;19.99;50.84;99899.44;5053581;28;20036;-62
2023/05/14 14:28:36;;;;;;;2.33;1.70;;;;;;;19.96;50.70;99900.75;5053611;28;20181;-62
2023/05/14 14:31:02;;;;;;;2.03;1.83;;;;;;;19.91;50.39;99902.53;5053621;28;20041;-63
2023/05/14 14:33:27;;;;;;;2.38;2.05;;;;;;;19.81;50.50;99903.16;5054167;28;20117;-62
2023/05/14 14:35:53;;;;;;;3.72;1.90;;;;;;;19.85;50.69;99892.69;5053551;28;20086;-62
2023/05/14 14:38:19;;;;;;;1.92;1.70;;;;;;;19.66;51.23;99898.28;5053154;28;20112;-61
2023/05/14 14:40:45;;;;;;;2.33;1.80;;;;;;;19.39;52.60;99895.31;5053659;28;20502;-64
2023/05/14 14:43:10;;;;;;;2.28;1.80;;;;;;;19.43;52.74;99898.31;5053493;28;20041;-63
2023/05/14 14:45:36;;;;;;;1.85;1.58;;;;;;;19.27;53.13;99890.97;5053411;28;20063;-62
2023/05/14 14:48:36;;;;;;;1.90;1.60;;;;;;;19.32;53.45;99896.50;5053064;28;20494;-60
2023/05/14 14:51:03;;;;;;;1.98;1.73;;;;;;;19.06;54.35;99900.53;5053202;28;20128;-61
2023/05/14 14:53:29;;;;;;;3.53;1.98;;;;;;;19.12;54.59;99899.59;5053238;28;20405;-67
2023/05/14 14:55:55;;;;;;;1.85;1.50;;;;;;;19.04;55.18;99889.13;5053156;28;20037;-61
2023/05/14 14:58:21;;;;;;;1.70;1.60;;;;;;;19.15;54.61;99885.59;5052885;28;20040;-64
2023/05/14 15:00:48;;;;;;;1.88;1.55;;;;;;;19.18;54.22;99885.97;5053043;28;20478;-62
2023/05/14 15:03:14;;;;;;;1.90;1.52;;;;;;;18.95;55.39;99892.22;5052977;28;20068;-60
2023/05/14 15:05:39;;;;;;;2.22;1.65;;;;;;;18.78;56.30;99880.50;5052058;28;20075;-62
2023/05/14 15:08:05;;;;;;;1.75;1.50;;;;;;;18.84;54.74;99887.63;5052647;28;20402;-61
2023/05/14 15:10:31;;;;;;;1.98;1.60;;;;;;;18.87;54.91;99876.38;5053168;28;20040;-61
2023/05/14 15:12:58;;;;;;;1.98;1.73;;;;;;;18.87;54.37;99876.38;5052764;28;20025;-63
2023/05/14 15:15:24;;;;;;;2.03;1.55;;;;;;;18.94;54.54;99882.47;5052662;28;20448;-59
2023/05/14 15:17:50;;;;;;;2.08;1.75;;;;;;;19.02;54.08;99878.59;5052441;28;20037;-59
2023/05/14 15:20:15;;;;;;;2.05;1.50;;;;;;;19.01;53.75;99876.13;5052626;28;20036;-63
2023/05/14 15:22:41;;;;;;;2.08;1.42;;;;;;;19.28;53.68;99885.34;5052651;28;20068;-63
2023/05/14 15:25:07;;;;;;;2.08;1.60;;;;;;;19.41;51.75;99881.53;5052543;28;20131;-61
2023/05/14 15:27:32;;;;;;;1.65;1.50;;;;;;;19.30;50.44;99877.00;5052304;28;20044;-61
2023/05/14 15:29:58;;;;;;;1.30;1.20;;;;;;;19.43;49.92;99880.25;5052573;28;20033;-63
2023/05/14 15:32:25;;;;;;;1.70;1.48;;;;;;;19.59;49.74;99869.78;5052455;28;20534;-64
2023/05/14 15:34:51;;;;;;;;;;;;;;;19.60;49.62;99880.34;5052936;28;20112;-61
2023/05/14 15:37:16;;;;;;;2.63;1.30;;;;;;;19.72;50.39;99875.72;5052059;28;20342;-61
2023/05/14 15:39:42;;;;;;;1.95;1.60;;;;;;;19.74;50.94;99876.28;5052520;28;20033;-63
2023/05/14 15:42:07;;;;;;;1.58;1.30;;;;;;;19.79;51.76;99883.66;5050820;28;20539;-62
2023/05/14 15:44:33;;;;;;;2.05;1.70;;;;;;;19.65;51.66;99885.84;5052483;28;20134;-61
2023/05/14 15:46:59;;;;;;;2.08;1.88;;;;;;;19.61;51.74;99886.56;5052161;28;20475;-62